sensor_id;sensor_type;location;lat;lon;timestamp;P1;durP1;ratioP1;P2;durP2;ratioP2
6426;SDS011;3246;42.664;23.308;2023-05-14T00:00:35;3.97;;;2.90;;
6426;SDS011;3246;42.664;23.308;2023-05-14T00:03:03;2.58;;;2.38;;
6426;SDS011;3246;42.664;23.308;2023-05-14T00:05:30;2.47;;;2.25;;
6426;SDS011;3246;42.664;23.308;2023-05-14T00:07:57;2.58;;;2.38;;
6426;SDS011;3246;42.664;23.308;2023-05-14T00:10:24;3.67;;;2.75;;
6426;SDS011;3246;42.664;23.308;2023-05-14T00:12:51;2.70;;;2.50;;
6426;SDS011;3246;42.664;23.308;2023-05-14T00:15:18;6.05;;;4.07;;
6426;SDS011;3246;42.664;23.308;2023-05-14T00:17:45;3.08;;;2.47;;
6426;SDS011;3246;42.664;23.308;2023-05-14T00:20:13;5.78;;;3.10;;
6426;SDS011;3246;42.664;23.308;2023-05-14T00:22:40;3.00;;;2.53;;
6426;SDS011;3246;42.664;23.308;2023-05-14T00:25:07;2.88;;;2.70;;
6426;SDS011;3246;42.664;23.308;2023-05-14T00:27:34;5.43;;;3.53;;
6426;SDS011;3246;42.664;23.308;2023-05-14T00:30:03;5.50;;;4.00;;
6426;SDS011;3246;42.664;23.308;2023-05-14T00:32:31;7.57;;;3.17;;
6426;SDS011;3246;42.664;23.308;2023-05-14T00:34:57;3.53;;;2.65;;
6426;SDS011;3246;42.664;23.308;2023-05-14T00:37:25;3.40;;;3.08;;
6426;SDS011;3246;42.664;23.308;2023-05-14T00:39:52;3.03;;;2.63;;
6426;SDS011;3246;42.664;23.308;2023-05-14T00:42:19;2.58;;;2.08;;
6426;SDS011;3246;42.664;23.308;2023-05-14T00:44:46;3.28;;;2.97;;
6426;SDS011;3246;42.664;23.308;2023-05-14T00:47:12;3.85;;;2.70;;
6426;SDS011;3246;42.664;23.308;2023-05-14T00:49:40;3.03;;;2.72;;
6426;SDS011;3246;42.664;23.308;2023-05-14T00:52:07;3.53;;;2.95;;
6426;SDS011;3246;42.664;23.308;2023-05-14T00:54:35;3.03;;;2.72;;
6426;SDS011;3246;42.664;23.308;2023-05-14T00:57:02;2.60;;;2.40;;
6426;SDS011;3246;42.664;23.308;2023-05-14T00:59:31;3.03;;;2.72;;
6426;SDS011;3246;42.664;23.308;2023-05-14T01:01:58;2.58;;;2.38;;
6426;SDS011;3246;42.664;23.308;2023-05-14T01:04:25;2.80;;;2.60;;
6426;SDS011;3246;42.664;23.308;2023-05-14T01:06:53;2.75;;;2.55;;
6426;SDS011;3246;42.664;23.308;2023-05-14T01:09:31;2.65;;;2.25;;
6426;SDS011;3246;42.664;23.308;2023-05-14T01:12:07;2.85;;;2.63;;
6426;SDS011;3246;42.664;23.308;2023-05-14T01:14:42;3.75;;;2.22;;
6426;SDS011;3246;42.664;23.308;2023-05-14T01:17:16;5.13;;;2.33;;
6426;SDS011;3246;42.664;23.308;2023-05-14T01:19:47;4.35;;;2.42;;
6426;SDS011;3246;42.664;23.308;2023-05-14T01:22:15;4.88;;;2.22;;
6426;SDS011;3246;42.664;23.308;2023-05-14T01:24:42;2.47;;;2.28;;
6426;SDS011;3246;42.664;23.308;2023-05-14T01:27:09;4.10;;;2.45;;
6426;SDS011;3246;42.664;23.308;2023-05-14T01:29:52;4.03;;;3.60;;
6426;SDS011;3246;42.664;23.308;2023-05-14T01:32:27;3.13;;;2.50;;
6426;SDS011;3246;42.664;23.308;2023-05-14T01:34:55;3.53;;;2.75;;
6426;SDS011;3246;42.664;23.308;2023-05-14T01:37:27;3.05;;;2.75;;
6426;SDS011;3246;42.664;23.308;2023-05-14T01:39:56;2.50;;;2.30;;
6426;SDS011;3246;42.664;23.308;2023-05-14T01:42:23;2.17;;;1.92;;
6426;SDS011;3246;42.664;23.308;2023-05-14T01:44:51;3.20;;;2.42;;
6426;SDS011;3246;42.664;23.308;2023-05-14T01:47:18;2.92;;;2.50;;
6426;SDS011;3246;42.664;23.308;2023-05-14T01:49:44;2.45;;;2.25;;
6426;SDS011;3246;42.664;23.308;2023-05-14T01:52:11;2.17;;;2.08;;
6426;SDS011;3246;42.664;23.308;2023-05-14T01:54:40;2.25;;;2.05;;
6426;SDS011;3246;42.664;23.308;2023-05-14T01:57:06;3.03;;;2.38;;
6426;SDS011;3246;42.664;23.308;2023-05-14T01:59:33;2.83;;;2.20;;
6426;SDS011;3246;42.664;23.308;2023-05-14T02:02:00;2.45;;;2.28;;
6426;SDS011;3246;42.664;23.308;2023-05-14T02:04:27;2.63;;;2.42;;
6426;SDS011;3246;42.664;23.308;2023-05-14T02:06:53;4.50;;;2.33;;
6426;SDS011;3246;42.664;23.308;2023-05-14T02:09:20;3.72;;;1.95;;
6426;SDS011;3246;42.664;23.308;2023-05-14T02:11:48;3.67;;;2.33;;
6426;SDS011;3246;42.664;23.308;2023-05-14T02:14:15;3.03;;;2.40;;
6426;SDS011;3246;42.664;23.308;2023-05-14T02:16:42;2.90;;;2.67;;
6426;SDS011;3246;42.664;23.308;2023-05-14T02:19:09;2.13;;;2.03;;
6426;SDS011;3246;42.664;23.308;2023-05-14T02:21:35;2.35;;;1.85;;
6426;SDS011;3246;42.664;23.308;2023-05-14T02:24:02;2.53;;;2.33;;
6426;SDS011;3246;42.664;23.308;2023-05-14T02:26:29;2.55;;;2.40;;
6426;SDS011;3246;42.664;23.308;2023-05-14T02:28:57;2.50;;;2.30;;
6426;SDS011;3246;42.664;23.308;2023-05-14T02:31:24;2.58;;;2.30;;
6426;SDS011;3246;42.664;23.308;2023-05-14T02:33:51;2.30;;;2.10;;
6426;SDS011;3246;42.664;23.308;2023-05-14T02:36:17;2.50;;;2.30;;
6426;SDS011;3246;42.664;23.308;2023-05-14T02:38:44;2.92;;;2.10;;
6426;SDS011;3246;42.664;23.308;2023-05-14T02:41:11;2.80;;;2.60;;
6426;SDS011;3246;42.664;23.308;2023-05-14T02:43:38;3.13;;;1.98;;
6426;SDS011;3246;42.664;23.308;2023-05-14T02:46:06;2.47;;;2.28;;
6426;SDS011;3246;42.664;23.308;2023-05-14T02:48:33;3.50;;;2.47;;
6426;SDS011;3246;42.664;23.308;2023-05-14T02:51:00;2.42;;;2.22;;
6426;SDS011;3246;42.664;23.308;2023-05-14T02:53:27;2.45;;;2.35;;
6426;SDS011;3246;42.664;23.308;2023-05-14T02:55:54;2.45;;;2.20;;
6426;SDS011;3246;42.664;23.308;2023-05-14T02:58:20;2.60;;;2.20;;
6426;SDS011;3246;42.664;23.308;2023-05-14T03:00:47;2.42;;;2.22;;
6426;SDS011;3246;42.664;23.308;2023-05-14T03:03:17;4.57;;;1.77;;
6426;SDS011;3246;42.664;23.308;2023-05-14T03:05:44;2.33;;;2.13;;
6426;SDS011;3246;42.664;23.308;2023-05-14T03:08:11;2.28;;;2.10;;
6426;SDS011;3246;42.664;23.308;2023-05-14T03:10:38;4.43;;;2.70;;
6426;SDS011;3246;42.664;23.308;2023-05-14T03:13:04;2.17;;;2.00;;
6426;SDS011;3246;42.664;23.308;2023-05-14T03:15:31;2.20;;;2.10;;
6426;SDS011;3246;42.664;23.308;2023-05-14T03:17:58;2.05;;;1.95;;
6426;SDS011;3246;42.664;23.308;2023-05-14T03:20:26;1.63;;;1.50;;
6426;SDS011;3246;42.664;23.308;2023-05-14T03:22:53;3.25;;;2.33;;
6426;SDS011;3246;42.664;23.308;2023-05-14T03:25:20;2.00;;;1.80;;
6426;SDS011;3246;42.664;23.308;2023-05-14T03:27:47;3.08;;;2.65;;
6426;SDS011;3246;42.664;23.308;2023-05-14T03:30:14;4.32;;;2.20;;
6426;SDS011;3246;42.664;23.308;2023-05-14T03:32:40;3.35;;;2.08;;
6426;SDS011;3246;42.664;23.308;2023-05-14T03:35:07;7.10;;;2.38;;
6426;SDS011;3246;42.664;23.308;2023-05-14T03:37:36;2.28;;;2.17;;
6426;SDS011;3246;42.664;23.308;2023-05-14T03:40:03;3.78;;;2.55;;
6426;SDS011;3246;42.664;23.308;2023-05-14T03:42:30;2.50;;;2.30;;
6426;SDS011;3246;42.664;23.308;2023-05-14T03:44:57;2.20;;;2.00;;
6426;SDS011;3246;42.664;23.308;2023-05-14T03:47:24;2.60;;;2.50;;
6426;SDS011;3246;42.664;23.308;2023-05-14T03:49:51;3.30;;;1.98;;
6426;SDS011;3246;42.664;23.308;2023-05-14T03:52:17;5.65;;;2.42;;
6426;SDS011;3246;42.664;23.308;2023-05-14T03:54:45;2.67;;;2.30;;
6426;SDS011;3246;42.664;23.308;2023-05-14T03:57:12;2.40;;;2.20;;
6426;SDS011;3246;42.664;23.308;2023-05-14T03:59:39;2.95;;;2.75;;
6426;SDS011;3246;42.664;23.308;2023-05-14T04:02:06;2.40;;;2.20;;
6426;SDS011;3246;42.664;23.308;2023-05-14T04:04:33;2.70;;;2.50;;
6426;SDS011;3246;42.664;23.308;2023-05-14T04:06:59;2.20;;;2.08;;
6426;SDS011;3246;42.664;23.308;2023-05-14T04:09:26;2.30;;;2.10;;
6426;SDS011;3246;42.664;23.308;2023-05-14T04:11:54;2.42;;;2.22;;
6426;SDS011;3246;42.664;23.308;2023-05-14T04:14:21;3.08;;;2.00;;
6426;SDS011;3246;42.664;23.308;2023-05-14T04:16:48;3.13;;;2.22;;
6426;SDS011;3246;42.664;23.308;2023-05-14T04:19:15;1.80;;;1.70;;
6426;SDS011;3246;42.664;23.308;2023-05-14T04:21:41;3.30;;;2.13;;
6426;SDS011;3246;42.664;23.308;2023-05-14T04:24:08;1.95;;;1.85;;
6426;SDS011;3246;42.664;23.308;2023-05-14T04:26:35;3.70;;;2.30;;
6426;SDS011;3246;42.664;23.308;2023-05-14T04:29:03;3.35;;;2.60;;
6426;SDS011;3246;42.664;23.308;2023-05-14T04:31:30;2.63;;;2.40;;
6426;SDS011;3246;42.664;23.308;2023-05-14T04:33:56;2.72;;;2.25;;
6426;SDS011;3246;42.664;23.308;2023-05-14T04:36:23;2.60;;;2.38;;
6426;SDS011;3246;42.664;23.308;2023-05-14T04:38:50;3.92;;;2.70;;
6426;SDS011;3246;42.664;23.308;2023-05-14T04:41:17;3.35;;;2.60;;
6426;SDS011;3246;42.664;23.308;2023-05-14T04:43:44;2.47;;;2.28;;
6426;SDS011;3246;42.664;23.308;2023-05-14T04:46:13;2.60;;;2.40;;
6426;SDS011;3246;42.664;23.308;2023-05-14T04:48:40;2.35;;;2.15;;
6426;SDS011;3246;42.664;23.308;2023-05-14T04:51:07;2.28;;;2.13;;
6426;SDS011;3246;42.664;23.308;2023-05-14T04:53:33;2.20;;;1.98;;
6426;SDS011;3246;42.664;23.308;2023-05-14T04:56:00;3.10;;;2.80;;
6426;SDS011;3246;42.664;23.308;2023-05-14T04:58:27;3.10;;;2.90;;
6426;SDS011;3246;42.664;23.308;2023-05-14T05:00:56;3.53;;;2.40;;
6426;SDS011;3246;42.664;23.308;2023-05-14T05:03:24;2.17;;;2.00;;
6426;SDS011;3246;42.664;23.308;2023-05-14T05:05:51;2.33;;;2.13;;
6426;SDS011;3246;42.664;23.308;2023-05-14T05:08:18;3.00;;;2.28;;
6426;SDS011;3246;42.664;23.308;2023-05-14T05:10:45;4.63;;;3.13;;
6426;SDS011;3246;42.664;23.308;2023-05-14T05:13:11;3.13;;;2.67;;
6426;SDS011;3246;42.664;23.308;2023-05-14T05:15:39;2.80;;;2.60;;
6426;SDS011;3246;42.664;23.308;2023-05-14T05:18:06;3.03;;;2.72;;
6426;SDS011;3246;42.664;23.308;2023-05-14T05:20:34;2.95;;;2.58;;
6426;SDS011;3246;42.664;23.308;2023-05-14T05:23:01;3.25;;;2.60;;
6426;SDS011;3246;42.664;23.308;2023-05-14T05:25:27;4.20;;;2.42;;
6426;SDS011;3246;42.664;23.308;2023-05-14T05:27:54;3.50;;;3.30;;
6426;SDS011;3246;42.664;23.308;2023-05-14T05:30:21;4.63;;;3.00;;
6426;SDS011;3246;42.664;23.308;2023-05-14T05:32:48;5.60;;;5.00;;
6426;SDS011;3246;42.664;23.308;2023-05-14T05:35:14;4.00;;;3.40;;
6426;SDS011;3246;42.664;23.308;2023-05-14T05:37:42;3.75;;;3.33;;
6426;SDS011;3246;42.664;23.308;2023-05-14T05:40:10;3.63;;;3.33;;
6426;SDS011;3246;42.664;23.308;2023-05-14T05:42:38;3.88;;;3.10;;
6426;SDS011;3246;42.664;23.308;2023-05-14T05:45:05;3.40;;;3.10;;
6426;SDS011;3246;42.664;23.308;2023-05-14T05:47:32;5.88;;;3.47;;
6426;SDS011;3246;42.664;23.308;2023-05-14T05:49:59;3.10;;;2.88;;
6426;SDS011;3246;42.664;23.308;2023-05-14T05:52:26;3.80;;;3.50;;
6426;SDS011;3246;42.664;23.308;2023-05-14T05:54:55;6.53;;;3.50;;
6426;SDS011;3246;42.664;23.308;2023-05-14T05:57:21;3.95;;;3.25;;
6426;SDS011;3246;42.664;23.308;2023-05-14T05:59:48;3.42;;;3.00;;
6426;SDS011;3246;42.664;23.308;2023-05-14T06:02:15;5.45;;;3.70;;
6426;SDS011;3246;42.664;23.308;2023-05-14T06:04:42;4.00;;;3.60;;
6426;SDS011;3246;42.664;23.308;2023-05-14T06:07:08;4.43;;;4.03;;
6426;SDS011;3246;42.664;23.308;2023-05-14T06:09:35;4.13;;;3.63;;
6426;SDS011;3246;42.664;23.308;2023-05-14T06:12:04;4.40;;;4.00;;
6426;SDS011;3246;42.664;23.308;2023-05-14T06:14:31;4.70;;;4.22;;
6426;SDS011;3246;42.664;23.308;2023-05-14T06:16:58;4.28;;;3.88;;
6426;SDS011;3246;42.664;23.308;2023-05-14T06:19:25;4.63;;;4.00;;
6426;SDS011;3246;42.664;23.308;2023-05-14T06:21:51;8.52;;;5.05;;
6426;SDS011;3246;42.664;23.308;2023-05-14T06:24:18;6.53;;;3.92;;
6426;SDS011;3246;42.664;23.308;2023-05-14T06:26:45;4.97;;;4.50;;
6426;SDS011;3246;42.664;23.308;2023-05-14T06:29:14;4.57;;;4.18;;
6426;SDS011;3246;42.664;23.308;2023-05-14T06:31:41;6.70;;;3.95;;
6426;SDS011;3246;42.664;23.308;2023-05-14T06:34:07;5.45;;;3.85;;
6426;SDS011;3246;42.664;23.308;2023-05-14T06:36:34;4.70;;;4.30;;
6426;SDS011;3246;42.664;23.308;2023-05-14T06:39:01;3.63;;;3.33;;
6426;SDS011;3246;42.664;23.308;2023-05-14T06:41:28;7.87;;;3.80;;
6426;SDS011;3246;42.664;23.308;2023-05-14T06:43:55;5.70;;;3.63;;
6426;SDS011;3246;42.664;23.308;2023-05-14T06:46:23;4.33;;;4.00;;
6426;SDS011;3246;42.664;23.308;2023-05-14T06:48:50;7.77;;;4.27;;
6426;SDS011;3246;42.664;23.308;2023-05-14T06:51:16;5.33;;;4.83;;
6426;SDS011;3246;42.664;23.308;2023-05-14T06:53:43;4.20;;;3.90;;
6426;SDS011;3246;42.664;23.308;2023-05-14T06:56:10;7.82;;;5.20;;
6426;SDS011;3246;42.664;23.308;2023-05-14T06:58:38;7.90;;;4.63;;
6426;SDS011;3246;42.664;23.308;2023-05-14T07:01:05;5.78;;;4.35;;
6426;SDS011;3246;42.664;23.308;2023-05-14T07:03:33;6.53;;;5.30;;
6426;SDS011;3246;42.664;23.308;2023-05-14T07:06:00;6.07;;;5.43;;
6426;SDS011;3246;42.664;23.308;2023-05-14T07:08:27;5.20;;;4.70;;
6426;SDS011;3246;42.664;23.308;2023-05-14T07:10:53;4.93;;;4.13;;
6426;SDS011;3246;42.664;23.308;2023-05-14T07:13:21;5.20;;;4.70;;
6426;SDS011;3246;42.664;23.308;2023-05-14T07:15:48;5.40;;;4.90;;
6426;SDS011;3246;42.664;23.308;2023-05-14T07:18:15;4.50;;;4.20;;
6426;SDS011;3246;42.664;23.308;2023-05-14T07:20:43;5.67;;;5.10;;
6426;SDS011;3246;42.664;23.308;2023-05-14T07:23:10;5.67;;;5.10;;
6426;SDS011;3246;42.664;23.308;2023-05-14T07:25:37;6.63;;;6.03;;
6426;SDS011;3246;42.664;23.308;2023-05-14T07:28:03;6.60;;;5.93;;
6426;SDS011;3246;42.664;23.308;2023-05-14T07:30:30;7.35;;;5.43;;
6426;SDS011;3246;42.664;23.308;2023-05-14T07:32:57;7.23;;;5.53;;
6426;SDS011;3246;42.664;23.308;2023-05-14T07:35:24;6.07;;;5.57;;
6426;SDS011;3246;42.664;23.308;2023-05-14T07:37:52;5.72;;;5.10;;
6426;SDS011;3246;42.664;23.308;2023-05-14T07:40:19;8.88;;;6.15;;
6426;SDS011;3246;42.664;23.308;2023-05-14T07:42:46;11.32;;;6.93;;
6426;SDS011;3246;42.664;23.308;2023-05-14T07:45:13;8.35;;;5.43;;
6426;SDS011;3246;42.664;23.308;2023-05-14T07:47:39;10.07;;;6.40;;
6426;SDS011;3246;42.664;23.308;2023-05-14T07:50:07;6.07;;;5.55;;
6426;SDS011;3246;42.664;23.308;2023-05-14T07:52:34;6.50;;;5.72;;
6426;SDS011;3246;42.664;23.308;2023-05-14T07:55:02;6.40;;;5.80;;
6426;SDS011;3246;42.664;23.308;2023-05-14T07:57:30;5.45;;;4.95;;
6426;SDS011;3246;42.664;23.308;2023-05-14T07:59:56;5.18;;;4.82;;
6426;SDS011;3246;42.664;23.308;2023-05-14T08:02:23;5.93;;;5.43;;
6426;SDS011;3246;42.664;23.308;2023-05-14T08:04:50;6.90;;;5.50;;
6426;SDS011;3246;42.664;23.308;2023-05-14T08:07:17;7.15;;;6.45;;
6426;SDS011;3246;42.664;23.308;2023-05-14T08:09:44;4.97;;;4.65;;
6426;SDS011;3246;42.664;23.308;2023-05-14T08:12:12;5.77;;;5.20;;
6426;SDS011;3246;42.664;23.308;2023-05-14T08:14:40;8.60;;;5.32;;
6426;SDS011;3246;42.664;23.308;2023-05-14T08:17:06;7.10;;;5.43;;
6426;SDS011;3246;42.664;23.308;2023-05-14T08:19:33;7.47;;;5.20;;
6426;SDS011;3246;42.664;23.308;2023-05-14T08:22:00;5.90;;;5.40;;
6426;SDS011;3246;42.664;23.308;2023-05-14T08:24:27;5.10;;;4.70;;
6426;SDS011;3246;42.664;23.308;2023-05-14T08:26:54;8.40;;;5.50;;
6426;SDS011;3246;42.664;23.308;2023-05-14T08:29:22;6.70;;;5.83;;
6426;SDS011;3246;42.664;23.308;2023-05-14T08:31:50;6.77;;;6.03;;
6426;SDS011;3246;42.664;23.308;2023-05-14T08:34:16;8.70;;;6.10;;
6426;SDS011;3246;42.664;23.308;2023-05-14T08:36:43;5.07;;;4.63;;
6426;SDS011;3246;42.664;23.308;2023-05-14T08:39:10;5.97;;;5.47;;
6426;SDS011;3246;42.664;23.308;2023-05-14T08:41:37;7.20;;;5.00;;
6426;SDS011;3246;42.664;23.308;2023-05-14T08:44:05;6.10;;;5.60;;
6426;SDS011;3246;42.664;23.308;2023-05-14T08:46:37;6.03;;;5.53;;
6426;SDS011;3246;42.664;23.308;2023-05-14T08:49:07;7.47;;;5.97;;
6426;SDS011;3246;42.664;23.308;2023-05-14T08:51:41;7.00;;;6.30;;
6426;SDS011;3246;42.664;23.308;2023-05-14T08:54:11;6.07;;;5.50;;
6426;SDS011;3246;42.664;23.308;2023-05-14T08:56:40;6.27;;;5.50;;
6426;SDS011;3246;42.664;23.308;2023-05-14T08:59:09;5.93;;;5.45;;
6426;SDS011;3246;42.664;23.308;2023-05-14T09:01:37;8.83;;;6.07;;
6426;SDS011;3246;42.664;23.308;2023-05-14T09:04:09;6.95;;;5.53;;
6426;SDS011;3246;42.664;23.308;2023-05-14T09:06:37;8.40;;;6.27;;
6426;SDS011;3246;42.664;23.308;2023-05-14T09:09:05;9.53;;;7.70;;
6426;SDS011;3246;42.664;23.308;2023-05-14T09:11:32;9.15;;;8.25;;
6426;SDS011;3246;42.664;23.308;2023-05-14T09:13:59;8.50;;;7.10;;
6426;SDS011;3246;42.664;23.308;2023-05-14T09:16:25;8.23;;;6.72;;
6426;SDS011;3246;42.664;23.308;2023-05-14T09:18:54;7.70;;;6.97;;
6426;SDS011;3246;42.664;23.308;2023-05-14T09:21:21;6.03;;;5.47;;
6426;SDS011;3246;42.664;23.308;2023-05-14T09:23:52;5.70;;;5.20;;
6426;SDS011;3246;42.664;23.308;2023-05-14T09:26:22;7.82;;;6.10;;
6426;SDS011;3246;42.664;23.308;2023-05-14T09:28:52;7.82;;;5.88;;
6426;SDS011;3246;42.664;23.308;2023-05-14T09:31:20;10.30;;;6.57;;
6426;SDS011;3246;42.664;23.308;2023-05-14T09:33:48;9.30;;;6.32;;
6426;SDS011;3246;42.664;23.308;2023-05-14T09:36:17;7.95;;;7.18;;
6426;SDS011;3246;42.664;23.308;2023-05-14T09:38:44;7.53;;;6.63;;
6426;SDS011;3246;42.664;23.308;2023-05-14T09:41:11;8.13;;;7.13;;
6426;SDS011;3246;42.664;23.308;2023-05-14T09:43:38;9.70;;;8.67;;
6426;SDS011;3246;42.664;23.308;2023-05-14T09:46:05;27.70;;;16.10;;
6426;SDS011;3246;42.664;23.308;2023-05-14T09:48:31;25.80;;;15.43;;
6426;SDS011;3246;42.664;23.308;2023-05-14T09:50:58;44.50;;;19.30;;
6426;SDS011;3246;42.664;23.308;2023-05-14T09:53:26;22.67;;;11.87;;
6426;SDS011;3246;42.664;23.308;2023-05-14T09:55:55;15.57;;;10.53;;
6426;SDS011;3246;42.664;23.308;2023-05-14T09:58:21;11.15;;;7.80;;
6426;SDS011;3246;42.664;23.308;2023-05-14T10:00:48;15.48;;;10.43;;
6426;SDS011;3246;42.664;23.308;2023-05-14T10:03:16;21.83;;;12.63;;
6426;SDS011;3246;42.664;23.308;2023-05-14T10:05:45;27.10;;;12.77;;
6426;SDS011;3246;42.664;23.308;2023-05-14T10:08:17;9.27;;;7.53;;
6426;SDS011;3246;42.664;23.308;2023-05-14T10:10:49;7.43;;;6.80;;
6426;SDS011;3246;42.664;23.308;2023-05-14T10:13:18;8.10;;;6.83;;
6426;SDS011;3246;42.664;23.308;2023-05-14T10:15:47;7.83;;;7.13;;
6426;SDS011;3246;42.664;23.308;2023-05-14T10:18:18;7.80;;;7.17;;
6426;SDS011;3246;42.664;23.308;2023-05-14T10:20:51;8.33;;;7.63;;
6426;SDS011;3246;42.664;23.308;2023-05-14T10:23:22;9.77;;;8.43;;
6426;SDS011;3246;42.664;23.308;2023-05-14T10:25:51;8.27;;;7.53;;
6426;SDS011;3246;42.664;23.308;2023-05-14T10:28:18;9.97;;;9.00;;
6426;SDS011;3246;42.664;23.308;2023-05-14T10:30:45;10.03;;;8.43;;
6426;SDS011;3246;42.664;23.308;2023-05-14T10:33:12;9.40;;;7.23;;
6426;SDS011;3246;42.664;23.308;2023-05-14T10:35:50;8.77;;;7.93;;
6426;SDS011;3246;42.664;23.308;2023-05-14T10:38:21;9.33;;;8.43;;
6426;SDS011;3246;42.664;23.308;2023-05-14T10:40:48;8.37;;;7.50;;
6426;SDS011;3246;42.664;23.308;2023-05-14T10:43:16;8.13;;;7.13;;
6426;SDS011;3246;42.664;23.308;2023-05-14T10:45:45;10.20;;;7.95;;
6426;SDS011;3246;42.664;23.308;2023-05-14T10:48:12;10.03;;;8.17;;
6426;SDS011;3246;42.664;23.308;2023-05-14T10:50:40;10.03;;;8.33;;
6426;SDS011;3246;42.664;23.308;2023-05-14T10:53:09;8.97;;;8.17;;
6426;SDS011;3246;42.664;23.308;2023-05-14T10:55:38;9.10;;;8.20;;
6426;SDS011;3246;42.664;23.308;2023-05-14T10:58:04;8.90;;;8.07;;
6426;SDS011;3246;42.664;23.308;2023-05-14T11:00:33;9.13;;;8.33;;
6426;SDS011;3246;42.664;23.308;2023-05-14T11:03:02;8.50;;;7.70;;
6426;SDS011;3246;42.664;23.308;2023-05-14T11:05:31;10.33;;;7.83;;
6426;SDS011;3246;42.664;23.308;2023-05-14T11:08:01;7.97;;;7.27;;
6426;SDS011;3246;42.664;23.308;2023-05-14T11:10:31;17.20;;;8.57;;
6426;SDS011;3246;42.664;23.308;2023-05-14T11:12:59;10.82;;;8.20;;
6426;SDS011;3246;42.664;23.308;2023-05-14T11:15:25;8.63;;;7.83;;
6426;SDS011;3246;42.664;23.308;2023-05-14T11:17:54;6.80;;;6.30;;
6426;SDS011;3246;42.664;23.308;2023-05-14T11:20:21;8.60;;;7.80;;
6426;SDS011;3246;42.664;23.308;2023-05-14T11:22:48;7.72;;;6.82;;
6426;SDS011;3246;42.664;23.308;2023-05-14T11:25:16;8.53;;;7.83;;
6426;SDS011;3246;42.664;23.308;2023-05-14T11:27:43;8.57;;;7.45;;
6426;SDS011;3246;42.664;23.308;2023-05-14T11:30:12;8.15;;;7.55;;
6426;SDS011;3246;42.664;23.308;2023-05-14T11:32:40;8.15;;;7.55;;
6426;SDS011;3246;42.664;23.308;2023-05-14T11:35:09;7.57;;;6.82;;
6426;SDS011;3246;42.664;23.308;2023-05-14T11:37:35;7.80;;;7.10;;
6426;SDS011;3246;42.664;23.308;2023-05-14T11:40:05;7.27;;;6.67;;
6426;SDS011;3246;42.664;23.308;2023-05-14T11:42:35;8.00;;;7.23;;
6426;SDS011;3246;42.664;23.308;2023-05-14T11:45:02;7.10;;;6.57;;
6426;SDS011;3246;42.664;23.308;2023-05-14T11:47:30;8.03;;;7.33;;
6426;SDS011;3246;42.664;23.308;2023-05-14T11:49:57;7.70;;;7.00;;
6426;SDS011;3246;42.664;23.308;2023-05-14T11:52:25;9.47;;;8.43;;
6426;SDS011;3246;42.664;23.308;2023-05-14T11:54:52;8.73;;;6.70;;
6426;SDS011;3246;42.664;23.308;2023-05-14T11:57:19;8.35;;;7.55;;
6426;SDS011;3246;42.664;23.308;2023-05-14T11:59:48;9.02;;;6.70;;
6426;SDS011;3246;42.664;23.308;2023-05-14T12:02:21;8.13;;;7.53;;
6426;SDS011;3246;42.664;23.308;2023-05-14T12:04:48;7.93;;;7.32;;
6426;SDS011;3246;42.664;23.308;2023-05-14T12:07:17;7.78;;;7.03;;
6426;SDS011;3246;42.664;23.308;2023-05-14T12:09:46;7.78;;;6.93;;
6426;SDS011;3246;42.664;23.308;2023-05-14T12:12:14;9.77;;;7.63;;
6426;SDS011;3246;42.664;23.308;2023-05-14T12:14:42;9.13;;;8.38;;
6426;SDS011;3246;42.664;23.308;2023-05-14T12:17:11;6.68;;;6.18;;
6426;SDS011;3246;42.664;23.308;2023-05-14T12:19:39;7.65;;;6.95;;
6426;SDS011;3246;42.664;23.308;2023-05-14T12:22:07;8.37;;;7.60;;
6426;SDS011;3246;42.664;23.308;2023-05-14T12:24:34;7.65;;;7.05;;
6426;SDS011;3246;42.664;23.308;2023-05-14T12:27:02;8.60;;;7.60;;
6426;SDS011;3246;42.664;23.308;2023-05-14T12:29:29;8.50;;;7.75;;
6426;SDS011;3246;42.664;23.308;2023-05-14T12:31:56;7.78;;;7.18;;
6426;SDS011;3246;42.664;23.308;2023-05-14T12:34:23;8.02;;;7.28;;
6426;SDS011;3246;42.664;23.308;2023-05-14T12:36:50;6.85;;;6.25;;
6426;SDS011;3246;42.664;23.308;2023-05-14T12:39:17;7.20;;;6.47;;
6426;SDS011;3246;42.664;23.308;2023-05-14T12:41:44;7.25;;;6.65;;
6426;SDS011;3246;42.664;23.308;2023-05-14T12:44:12;7.45;;;6.95;;
6426;SDS011;3246;42.664;23.308;2023-05-14T12:46:38;7.25;;;6.65;;
6426;SDS011;3246;42.664;23.308;2023-05-14T12:49:05;8.40;;;7.60;;
6426;SDS011;3246;42.664;23.308;2023-05-14T12:51:32;8.10;;;7.40;;
6426;SDS011;3246;42.664;23.308;2023-05-14T12:53:59;8.48;;;7.68;;
6426;SDS011;3246;42.664;23.308;2023-05-14T12:56:26;8.55;;;7.32;;
6426;SDS011;3246;42.664;23.308;2023-05-14T12:58:55;8.05;;;7.45;;
6426;SDS011;3246;42.664;23.308;2023-05-14T13:01:23;8.05;;;7.32;;
6426;SDS011;3246;42.664;23.308;2023-05-14T13:03:49;10.38;;;9.27;;
6426;SDS011;3246;42.664;23.308;2023-05-14T13:06:16;16.67;;;14.95;;
6426;SDS011;3246;42.664;23.308;2023-05-14T13:08:43;11.20;;;9.32;;
6426;SDS011;3246;42.664;23.308;2023-05-14T13:11:10;9.55;;;8.68;;
6426;SDS011;3246;42.664;23.308;2023-05-14T13:13:37;8.43;;;7.57;;
6426;SDS011;3246;42.664;23.308;2023-05-14T13:16:03;8.88;;;8.07;;
6426;SDS011;3246;42.664;23.308;2023-05-14T13:18:32;8.68;;;7.88;;
6426;SDS011;3246;42.664;23.308;2023-05-14T13:20:59;8.88;;;8.15;;
6426;SDS011;3246;42.664;23.308;2023-05-14T13:23:28;12.30;;;10.48;;
6426;SDS011;3246;42.664;23.308;2023-05-14T13:25:55;10.63;;;9.63;;
6426;SDS011;3246;42.664;23.308;2023-05-14T13:28:21;10.80;;;9.60;;
6426;SDS011;3246;42.664;23.308;2023-05-14T13:31:02;10.80;;;9.75;;
6426;SDS011;3246;42.664;23.308;2023-05-14T13:33:32;11.90;;;10.73;;
6426;SDS011;3246;42.664;23.308;2023-05-14T13:36:00;11.60;;;10.45;;
6426;SDS011;3246;42.664;23.308;2023-05-14T13:38:27;14.00;;;12.18;;
6426;SDS011;3246;42.664;23.308;2023-05-14T13:40:54;13.60;;;12.18;;
6426;SDS011;3246;42.664;23.308;2023-05-14T13:43:26;11.85;;;10.63;;
6426;SDS011;3246;42.664;23.308;2023-05-14T13:45:53;14.45;;;12.32;;
6426;SDS011;3246;42.664;23.308;2023-05-14T13:48:20;13.65;;;12.23;;
6426;SDS011;3246;42.664;23.308;2023-05-14T13:50:48;10.27;;;9.27;;
6426;SDS011;3246;42.664;23.308;2023-05-14T13:53:16;11.30;;;10.03;;
6426;SDS011;3246;42.664;23.308;2023-05-14T13:55:43;15.82;;;10.85;;
6426;SDS011;3246;42.664;23.308;2023-05-14T13:58:09;11.80;;;10.50;;
6426;SDS011;3246;42.664;23.308;2023-05-14T14:00:36;12.38;;;11.05;;
6426;SDS011;3246;42.664;23.308;2023-05-14T14:03:03;16.83;;;15.13;;
6426;SDS011;3246;42.664;23.308;2023-05-14T14:05:30;14.13;;;12.75;;
6426;SDS011;3246;42.664;23.308;2023-05-14T14:07:58;13.38;;;11.98;;
6426;SDS011;3246;42.664;23.308;2023-05-14T14:10:25;13.85;;;12.45;;
6426;SDS011;3246;42.664;23.308;2023-05-14T14:12:53;13.88;;;12.57;;
6426;SDS011;3246;42.664;23.308;2023-05-14T14:15:20;15.45;;;13.70;;
6426;SDS011;3246;42.664;23.308;2023-05-14T14:17:47;14.65;;;13.25;;
6426;SDS011;3246;42.664;23.308;2023-05-14T14:20:14;13.88;;;12.60;;
6426;SDS011;3246;42.664;23.308;2023-05-14T14:22:41;13.30;;;12.05;;
6426;SDS011;3246;42.664;23.308;2023-05-14T14:25:10;16.73;;;13.13;;
6426;SDS011;3246;42.664;23.308;2023-05-14T14:27:37;15.73;;;13.70;;
6426;SDS011;3246;42.664;23.308;2023-05-14T14:30:05;14.60;;;13.05;;
6426;SDS011;3246;42.664;23.308;2023-05-14T14:32:33;12.57;;;11.40;;
6426;SDS011;3246;42.664;23.308;2023-05-14T14:35:00;13.68;;;12.30;;
6426;SDS011;3246;42.664;23.308;2023-05-14T14:37:27;12.68;;;11.43;;
6426;SDS011;3246;42.664;23.308;2023-05-14T14:39:54;13.43;;;12.07;;
6426;SDS011;3246;42.664;23.308;2023-05-14T14:42:23;14.00;;;11.85;;
6426;SDS011;3246;42.664;23.308;2023-05-14T14:44:49;16.60;;;14.65;;
6426;SDS011;3246;42.664;23.308;2023-05-14T14:47:16;13.90;;;12.40;;
6426;SDS011;3246;42.664;23.308;2023-05-14T14:49:43;15.57;;;13.82;;
6426;SDS011;3246;42.664;23.308;2023-05-14T14:52:10;15.20;;;13.60;;
6426;SDS011;3246;42.664;23.308;2023-05-14T14:54:36;13.80;;;12.60;;
6426;SDS011;3246;42.664;23.308;2023-05-14T14:57:03;14.60;;;13.20;;
6426;SDS011;3246;42.664;23.308;2023-05-14T14:59:33;14.82;;;13.35;;